createdAt,value
2022-12-09T00:03:21.661Z,77.60
2022-12-09T00:08:19.832Z,75.45
2022-12-09T00:13:16.070Z,74.43
2022-12-09T00:18:12.297Z,71.93
2022-12-09T00:23:08.507Z,71.43
2022-12-09T00:28:04.857Z,70.22
2022-12-09T00:33:01.091Z,71.75
2022-12-09T00:37:57.617Z,73.00
2022-12-09T00:42:54.147Z,69.18
2022-12-09T00:47:50.590Z,64.60
2022-12-09T00:52:47.079Z,67.65
2022-12-09T00:57:43.660Z,73.15
2022-12-09T01:02:40.020Z,65.07
2022-12-09T01:07:37.550Z,64.25
2022-12-09T01:12:34.509Z,64.43
2022-12-09T01:17:30.991Z,60.80
2022-12-09T01:22:28.427Z,59.55
2022-12-09T01:27:24.975Z,62.03
2022-12-09T01:32:21.367Z,65.68
2022-12-09T01:37:17.659Z,66.88
2022-12-09T01:42:21.543Z,66.43
2022-12-09T01:47:21.958Z,66.75
2022-12-09T01:52:20.338Z,69.07
2022-12-09T01:57:17.090Z,68.40
2022-12-09T02:02:15.557Z,70.28
2022-12-09T02:07:11.875Z,72.22
2022-12-09T02:12:24.874Z,71.85
2022-12-09T02:22:21.105Z,70.32
2022-12-09T02:27:24.744Z,79.57
2022-12-09T02:32:20.972Z,80.30
2022-12-09T02:37:27.871Z,78.80
2022-12-09T02:42:25.940Z,79.07
2022-12-09T02:47:24.455Z,81.07
2022-12-09T02:52:22.525Z,82.53
2022-12-09T02:57:26.250Z,81.82
2022-12-09T03:02:26.305Z,85.00
2022-12-09T03:07:29.669Z,87.65
2022-12-09T03:12:30.581Z,84.00
2022-12-09T03:17:32.815Z,81.35
2022-12-09T03:22:31.402Z,84.82
2022-12-09T03:27:46.166Z,78.43
2022-12-09T03:32:43.574Z,76.28
2022-12-09T03:37:40.320Z,75.68
2022-12-09T03:42:39.430Z,75.10
2022-12-09T03:47:36.442Z,75.65
2022-12-09T03:52:37.328Z,71.30
2022-12-09T03:57:36.303Z,73.43
2022-12-09T04:02:33.060Z,73.20
2022-12-09T04:07:29.598Z,70.03
2022-12-09T04:12:25.985Z,69.25
2022-12-09T04:17:22.644Z,64.75
2022-12-09T04:22:18.921Z,67.72
2022-12-09T04:27:15.210Z,65.22
2022-12-09T04:32:11.785Z,69.38
2022-12-09T04:37:08.698Z,67.30
2022-12-09T04:42:05.134Z,68.57
2022-12-09T04:47:01.460Z,71.60
2022-12-09T04:51:57.755Z,71.10
2022-12-09T04:56:54.152Z,74.22
2022-12-09T05:01:50.459Z,74.82
2022-12-09T05:06:47.271Z,72.88
2022-12-09T05:11:43.783Z,76.80
2022-12-09T05:16:40.641Z,79.47
2022-12-09T05:21:37.513Z,84.13
2022-12-09T05:26:33.957Z,83.65
2022-12-09T05:31:30.606Z,87.85
2022-12-09T05:36:27.813Z,91.15
2022-12-09T05:41:24.381Z,93.60
2022-12-09T05:46:21.037Z,98.75
2022-12-09T05:51:24.841Z,100.53
2022-12-09T05:56:22.408Z,95.68
2022-12-09T06:01:19.300Z,103.25
2022-12-09T06:06:16.930Z,101.43
2022-12-09T06:11:14.664Z,100.20
2022-12-09T06:16:12.138Z,97.50
2022-12-09T06:21:09.932Z,99.03
2022-12-09T06:26:07.003Z,98.15
2022-12-09T06:31:03.647Z,97.60
2022-12-09T06:36:01.365Z,94.47
2022-12-09T06:40:57.774Z,92.18
2022-12-09T06:45:54.204Z,91.75
2022-12-09T06:50:50.918Z,89.18
2022-12-09T06:55:48.932Z,87.07
2022-12-09T07:00:45.321Z,83.35
2022-12-09T07:05:42.480Z,83.65
2022-12-09T07:10:40.031Z,87.07
2022-12-09T07:15:36.486Z,86.75
2022-12-09T07:20:32.767Z,79.65
2022-12-09T07:25:29.070Z,82.05
2022-12-09T07:30:25.646Z,80.78
2022-12-09T07:35:22.388Z,78.15
2022-12-09T07:40:19.093Z,79.88
2022-12-09T07:45:15.770Z,79.68
2022-12-09T07:50:12.400Z,76.10
2022-12-09T07:55:09.657Z,77.55
2022-12-09T08:00:06.907Z,79.10
2022-12-09T08:05:04.060Z,75.13
2022-12-09T08:10:01.083Z,71.60
2022-12-09T08:14:57.848Z,73.80
2022-12-09T08:19:54.821Z,70.32
2022-12-09T08:24:51.729Z,72.30
2022-12-09T08:29:48.196Z,71.70
2022-12-09T08:34:45.849Z,71.47
2022-12-09T08:39:42.523Z,69.32
2022-12-09T08:44:39.510Z,67.15
2022-12-09T08:49:35.959Z,66.13
2022-12-09T08:54:32.790Z,66.97
2022-12-09T08:59:29.487Z,66.75
2022-12-09T09:04:26.189Z,66.70
2022-12-09T09:09:23.458Z,66.25
2022-12-09T09:14:20.135Z,66.45
2022-12-09T09:19:19.514Z,66.68
2022-12-09T09:24:18.115Z,70.65
2022-12-09T09:29:15.931Z,69.67
2022-12-09T09:34:12.537Z,67.38
2022-12-09T09:39:09.925Z,71.38
2022-12-09T09:44:27.245Z,66.60
2022-12-09T09:49:40.019Z,65.97
2022-12-09T09:54:37.096Z,62.20
2022-12-09T09:59:39.282Z,55.38
2022-12-09T10:04:56.431Z,55.80
2022-12-09T10:09:52.958Z,54.42
2022-12-09T10:14:50.428Z,54.53
2022-12-09T10:19:48.891Z,58.35
2022-12-09T10:24:47.725Z,58.22
2022-12-09T10:29:59.206Z,60.50
2022-12-09T10:34:56.255Z,61.50
2022-12-09T10:40:00.033Z,59.00
2022-12-09T10:45:07.167Z,59.45
2022-12-09T10:50:04.992Z,62.60
2022-12-09T10:55:02.496Z,65.22
2022-12-09T11:00:00.873Z,66.20
2022-12-09T11:05:17.204Z,64.65
2022-12-09T11:10:19.937Z,70.07
2022-12-09T11:15:35.336Z,72.70
2022-12-09T11:20:33.068Z,75.70
2022-12-09T11:25:31.802Z,78.95
2022-12-09T11:30:31.795Z,76.80
2022-12-09T11:35:33.251Z,70.57
2022-12-09T11:40:31.279Z,69.38
2022-12-09T11:45:31.375Z,52.15
2022-12-09T11:50:32.403Z,48.83
2022-12-09T11:55:28.943Z,43.03
2022-12-09T12:00:27.074Z,39.60
2022-12-09T12:05:36.182Z,36.53
2022-12-09T12:10:37.226Z,37.83
2022-12-09T12:15:52.410Z,40.58
2022-12-09T12:21:07.256Z,35.05
2022-12-09T12:26:11.629Z,35.95
2022-12-09T12:31:26.669Z,35.13
2022-12-09T12:36:22.929Z,31.75
2022-12-09T12:41:31.334Z,28.77
2022-12-09T12:46:30.392Z,25.05
2022-12-09T12:51:34.370Z,27.23
2022-12-09T12:56:32.508Z,25.23
2022-12-09T13:01:31.110Z,27.10
2022-12-09T13:06:48.085Z,67.15
2022-12-09T13:11:50.599Z,24.98
2022-12-09T13:16:47.629Z,27.00
2022-12-09T13:21:45.190Z,23.92
2022-12-09T13:26:41.459Z,25.33
2022-12-09T13:31:41.897Z,27.75
2022-12-09T13:36:41.140Z,27.30
2022-12-09T13:41:58.191Z,32.20
2022-12-09T13:46:54.371Z,28.67
2022-12-09T13:51:52.003Z,28.75
2022-12-09T13:57:04.967Z,25.63
2022-12-09T14:02:09.030Z,26.08
2022-12-09T14:07:14.390Z,28.13
2022-12-09T14:12:11.613Z,29.40
2022-12-09T14:17:37.298Z,28.00
2022-12-09T14:22:34.444Z,29.05
2022-12-09T14:27:31.681Z,27.98
2022-12-09T14:32:29.784Z,28.23
2022-12-09T14:37:35.517Z,31.38
2022-12-09T14:42:50.597Z,29.45
2022-12-09T14:47:48.280Z,29.33
2022-12-09T14:52:52.804Z,29.67
2022-12-09T14:57:49.689Z,30.30
2022-12-09T15:03:23.171Z,29.98
2022-12-09T15:08:06.941Z,31.00
2022-12-09T15:13:03.478Z,30.42
2022-12-09T15:18:05.212Z,31.17
2022-12-09T15:23:03.380Z,30.63
2022-12-09T15:28:01.125Z,33.15
2022-12-09T15:32:57.537Z,32.70
2022-12-09T15:37:55.725Z,35.22
2022-12-09T15:42:53.675Z,35.33
2022-12-09T15:47:52.722Z,36.22
2022-12-09T15:52:51.039Z,34.50
2022-12-09T15:57:49.728Z,36.58
2022-12-09T16:02:47.484Z,36.58
2022-12-09T16:07:57.799Z,38.88
2022-12-09T16:13:04.748Z,41.30
2022-12-09T16:18:02.145Z,40.65
2022-12-09T16:22:59.058Z,44.00
2022-12-09T16:28:00.033Z,46.72
2022-12-09T16:32:57.430Z,47.75
2022-12-09T16:37:56.630Z,47.10
2022-12-09T16:42:54.033Z,47.05
2022-12-09T16:47:54.570Z,51.22
2022-12-09T16:52:50.757Z,49.70
2022-12-09T16:57:47.251Z,52.45
2022-12-09T17:02:46.663Z,52.90
2022-12-09T17:07:43.014Z,55.40
2022-12-09T17:12:39.363Z,56.78
2022-12-09T17:17:35.729Z,59.97
2022-12-09T17:22:32.212Z,61.65
2022-12-09T17:27:28.541Z,64.32
2022-12-09T17:32:25.246Z,61.60
2022-12-09T17:37:21.500Z,61.53
2022-12-09T17:42:17.743Z,60.42
2022-12-09T17:47:13.979Z,64.68
2022-12-09T17:52:10.294Z,63.88
2022-12-09T17:57:06.647Z,63.35
2022-12-09T18:02:04.541Z,64.68
2022-12-09T18:07:00.838Z,63.25
2022-12-09T18:11:57.019Z,65.50
2022-12-09T18:16:53.246Z,69.28
2022-12-09T18:21:49.681Z,69.00
2022-12-09T18:26:45.985Z,73.10
2022-12-09T18:31:45.455Z,74.40
2022-12-09T18:36:41.778Z,73.72
2022-12-09T18:41:38.026Z,68.10
2022-12-09T18:46:36.473Z,71.70
2022-12-09T18:51:32.990Z,71.88
2022-12-09T18:56:29.540Z,68.82
2022-12-09T19:01:27.821Z,66.32
2022-12-09T19:06:27.192Z,72.07
2022-12-09T19:11:26.212Z,66.60
2022-12-09T19:16:22.814Z,63.50
2022-12-09T19:21:19.741Z,64.70
2022-12-09T19:26:19.759Z,68.40
2022-12-09T19:31:17.304Z,70.85
2022-12-09T19:36:13.622Z,71.47
2022-12-09T19:41:10.422Z,72.30
2022-12-09T19:46:07.618Z,69.35
2022-12-09T19:51:04.938Z,70.63
2022-12-09T19:56:01.908Z,64.90
2022-12-09T20:00:58.244Z,65.97
2022-12-09T20:05:55.867Z,66.15
2022-12-09T20:10:52.105Z,69.93
2022-12-09T20:15:48.303Z,70.93
2022-12-09T20:20:48.862Z,70.65
2022-12-09T20:25:45.469Z,65.18
2022-12-09T20:30:41.770Z,65.88
2022-12-09T20:35:38.066Z,65.45
2022-12-09T20:40:39.110Z,61.80
2022-12-09T20:45:38.457Z,62.40
2022-12-09T20:50:38.583Z,60.17
2022-12-09T20:55:35.165Z,56.75
2022-12-09T21:00:31.799Z,57.75
2022-12-09T21:05:28.013Z,60.80
2022-12-09T21:10:24.242Z,62.28
2022-12-09T21:15:20.506Z,68.95
2022-12-09T21:20:17.249Z,66.65
2022-12-09T21:25:13.519Z,79.25
2022-12-09T21:30:10.184Z,68.15
2022-12-09T21:35:06.865Z,69.18
2022-12-09T21:40:04.265Z,69.15
2022-12-09T21:45:00.598Z,67.28
2022-12-09T21:49:56.974Z,68.25
2022-12-09T21:54:55.455Z,66.45
2022-12-09T21:59:53.169Z,66.05
2022-12-09T22:04:49.351Z,68.07
2022-12-09T22:09:45.546Z,62.78
2022-12-09T22:14:41.833Z,59.08
2022-12-09T22:19:38.353Z,64.45
2022-12-09T22:24:34.664Z,66.32
2022-12-09T22:29:30.905Z,65.20
2022-12-09T22:34:27.094Z,69.22
2022-12-09T22:39:23.799Z,71.90
2022-12-09T22:44:20.141Z,68.20
2022-12-09T22:49:16.497Z,69.72
2022-12-09T22:54:13.056Z,62.97
2022-12-09T22:59:09.342Z,67.32
2022-12-09T23:04:06.650Z,61.45
2022-12-09T23:09:03.446Z,65.80
2022-12-09T23:13:59.900Z,62.33
2022-12-09T23:18:57.494Z,64.15
2022-12-09T23:23:58.058Z,61.85
2022-12-09T23:28:55.271Z,65.85
2022-12-09T23:33:52.187Z,61.13
2022-12-09T23:38:48.821Z,66.20
2022-12-09T23:43:45.828Z,64.93
2022-12-09T23:48:42.318Z,62.63
2022-12-09T23:53:39.281Z,55.65
2022-12-09T23:58:35.485Z,58.42
